createdAt,value
2019-05-09T00:00:53.354Z,9.67
2019-05-09T00:02:05.752Z,9.63
2019-05-09T00:03:16.378Z,9.62
2019-05-09T00:04:28.036Z,9.6
2019-05-09T00:05:38.884Z,9.47
2019-05-09T00:06:51.788Z,9.53
2019-05-09T00:08:03.438Z,9.62
2019-05-09T00:09:13.916Z,9.62
2019-05-09T00:10:41.930Z,9.65
2019-05-09T00:11:55.546Z,9.67
2019-05-09T00:13:08.148Z,9.63
2019-05-09T00:14:19.133Z,9.74
2019-05-09T00:15:33.213Z,9.78
2019-05-09T00:16:43.959Z,9.75
2019-05-09T00:17:55.779Z,9.8
2019-05-09T00:19:08.027Z,9.8
2019-05-09T00:20:18.990Z,9.84
2019-05-09T00:21:29.232Z,9.83
2019-05-09T00:22:40.852Z,9.84
2019-05-09T00:23:51.348Z,9.84
2019-05-09T00:25:03.226Z,9.84
2019-05-09T00:26:15.759Z,9.88
2019-05-09T00:27:27.617Z,9.84
2019-05-09T00:28:40.916Z,9.88
2019-05-09T00:29:53.120Z,9.85
2019-05-09T00:31:05.784Z,9.85
2019-05-09T00:32:16.176Z,9.89
2019-05-09T00:33:28.399Z,9.88
2019-05-09T00:34:39.921Z,9.92
2019-05-09T00:35:53.402Z,9.85
2019-05-09T00:37:05.594Z,9.89
2019-05-09T00:38:15.830Z,9.91
2019-05-09T00:39:26.117Z,9.83
2019-05-09T00:40:36.704Z,9.91
2019-05-09T00:42:06.729Z,9.89
2019-05-09T00:43:18.798Z,9.85
2019-05-09T00:44:29.190Z,9.91
2019-05-09T00:45:43.698Z,9.93
2019-05-09T00:46:56.025Z,9.88
2019-05-09T00:48:08.302Z,9.92
2019-05-09T00:49:19.468Z,9.88
2019-05-09T00:50:36.512Z,9.84
2019-05-09T00:51:49.058Z,9.91
2019-05-09T00:52:59.481Z,9.89
2019-05-09T00:54:13.259Z,9.92
2019-05-09T00:55:23.953Z,9.93
2019-05-09T00:56:35.633Z,9.78
2019-05-09T00:57:46.440Z,9.88
2019-05-09T00:58:58.801Z,9.83
2019-05-09T01:00:09.321Z,9.88
2019-05-09T01:01:23.922Z,9.85
2019-05-09T01:02:36.403Z,9.89
2019-05-09T01:03:48.823Z,9.81
2019-05-09T01:05:01.218Z,9.81
2019-05-09T01:06:13.357Z,9.77
2019-05-09T01:07:25.659Z,9.88
2019-05-09T01:08:36.203Z,9.83
2019-05-09T01:09:46.423Z,9.83
2019-05-09T01:11:15.522Z,9.83
2019-05-09T01:12:25.991Z,9.81
2019-05-09T01:13:36.715Z,9.84
2019-05-09T01:14:48.847Z,9.81
2019-05-09T01:15:59.289Z,9.85
2019-05-09T01:17:13.539Z,9.8
2019-05-09T01:18:26.096Z,9.77
2019-05-09T01:19:38.815Z,9.81
2019-05-09T01:20:53.043Z,9.81
2019-05-09T01:22:03.793Z,9.78
2019-05-09T01:23:16.567Z,9.75
2019-05-09T01:24:28.734Z,9.67
2019-05-09T01:25:39.315Z,9.75
2019-05-09T01:26:51.418Z,9.63
2019-05-09T01:28:03.256Z,9.74
2019-05-09T01:29:16.117Z,9.75
2019-05-09T01:30:29.129Z,9.67
2019-05-09T01:31:43.492Z,9.63
2019-05-09T01:32:56.350Z,9.63
2019-05-09T01:34:09.361Z,9.63
2019-05-09T01:35:22.802Z,9.67
2019-05-09T01:36:33.863Z,9.75
2019-05-09T01:37:45.885Z,9.75
2019-05-09T01:38:56.494Z,9.66
2019-05-09T01:40:09.239Z,9.77
2019-05-09T01:41:36.183Z,9.81
2019-05-09T01:42:48.164Z,9.71
2019-05-09T01:43:59.228Z,9.81
2019-05-09T01:45:13.905Z,9.8
2019-05-09T01:46:26.056Z,9.75
2019-05-09T01:47:36.624Z,9.74
2019-05-09T01:48:48.439Z,9.78
2019-05-09T01:49:59.334Z,9.77
2019-05-09T01:51:13.621Z,9.83
2019-05-09T01:52:25.660Z,9.77
2019-05-09T01:53:35.973Z,9.74
2019-05-09T01:54:48.394Z,9.73
2019-05-09T01:55:59.579Z,9.81
2019-05-09T01:57:13.666Z,9.83
2019-05-09T01:58:25.732Z,9.83
2019-05-09T01:59:36.580Z,9.81
2019-05-09T02:00:48.501Z,9.83
2019-05-09T02:01:59.469Z,9.84
2019-05-09T02:03:16.466Z,9.8
2019-05-09T02:04:29.310Z,9.83
2019-05-09T02:05:42.940Z,9.85
2019-05-09T02:06:56.130Z,9.84
2019-05-09T02:08:08.271Z,9.83
2019-05-09T02:09:19.286Z,9.91
2019-05-09T02:10:31.254Z,9.88
2019-05-09T02:11:48.197Z,9.84
2019-05-09T02:12:59.993Z,9.99
2019-05-09T02:14:10.923Z,9.93
2019-05-09T02:15:23.476Z,9.96
2019-05-09T02:16:36.169Z,9.88
2019-05-09T02:18:06.822Z,9.83
2019-05-09T02:19:19.059Z,9.77
2019-05-09T02:20:29.539Z,9.77
2019-05-09T02:21:41.096Z,9.65
2019-05-09T02:22:53.861Z,9.77
2019-05-09T02:24:05.673Z,9.67
2019-05-09T02:25:16.209Z,9.65
2019-05-09T02:26:26.546Z,9.62
2019-05-09T02:27:38.805Z,9.59
2019-05-09T02:28:53.547Z,9.66
2019-05-09T02:30:08.058Z,9.53
2019-05-09T02:31:24.039Z,9.52
2019-05-09T02:32:37.230Z,9.52
2019-05-09T02:33:53.722Z,9.55
2019-05-09T02:35:07.492Z,9.56
2019-05-09T02:36:18.919Z,9.58
2019-05-09T02:37:31.232Z,9.55
2019-05-09T02:38:44.401Z,9.55
2019-05-09T02:39:59.084Z,9.55
2019-05-09T02:41:11.015Z,9.56
2019-05-09T02:42:27.282Z,9.48
2019-05-09T02:43:41.270Z,9.53
2019-05-09T02:44:54.632Z,9.53
2019-05-09T02:46:09.641Z,9.53
2019-05-09T02:47:22.827Z,9.52
2019-05-09T02:48:34.432Z,9.56
2019-05-09T02:49:48.567Z,9.38
2019-05-09T02:51:02.519Z,9.42
2019-05-09T02:52:14.897Z,9.41
2019-05-09T02:53:31.227Z,9.41
2019-05-09T02:54:44.762Z,9.4
2019-05-09T02:56:00.876Z,9.4
2019-05-09T02:57:13.751Z,9.44
2019-05-09T02:58:28.159Z,9.35
2019-05-09T02:59:41.042Z,9.48
2019-05-09T03:00:54.651Z,9.4
2019-05-09T03:02:09.442Z,9.42
2019-05-09T03:03:22.350Z,9.45
2019-05-09T03:04:34.481Z,9.4
2019-05-09T03:05:48.686Z,9.5
2019-05-09T03:07:02.285Z,9.44
2019-05-09T03:08:15.292Z,9.45
2019-05-09T03:09:28.612Z,9.42
2019-05-09T03:10:40.511Z,9.37
2019-05-09T03:11:53.486Z,9.44
2019-05-09T03:13:29.022Z,9.38
2019-05-09T03:14:41.027Z,9.38
2019-05-09T03:15:54.427Z,9.38
2019-05-09T03:17:08.705Z,9.38
2019-05-09T03:18:20.867Z,9.33
2019-05-09T03:19:34.875Z,9.27
2019-05-09T03:20:49.176Z,9.34
2019-05-09T03:22:00.960Z,9.3
2019-05-09T03:23:14.367Z,9.29
2019-05-09T03:24:28.722Z,9.25
2019-05-09T03:25:40.712Z,9.33
2019-05-09T03:26:54.129Z,9.27
2019-05-09T03:28:09.587Z,9.25
2019-05-09T03:29:21.622Z,9.33
2019-05-09T03:30:34.746Z,9.27
2019-05-09T03:31:50.001Z,9.27
2019-05-09T03:33:02.167Z,9.3
2019-05-09T03:34:19.113Z,9.26
2019-05-09T03:35:44.228Z,9.25
2019-05-09T03:36:58.028Z,9.29
2019-05-09T03:38:10.809Z,9.27
2019-05-09T03:39:23.533Z,9.3
2019-05-09T03:40:37.481Z,9.26
2019-05-09T03:41:48.672Z,9.35
2019-05-09T03:42:59.896Z,9.35
2019-05-09T03:44:12.146Z,9.35
2019-05-09T03:45:23.356Z,9.37
2019-05-09T03:46:35.089Z,9.33
2019-05-09T03:47:47.812Z,9.41
2019-05-09T03:48:58.313Z,9.37
2019-05-09T03:50:10.641Z,9.27
2019-05-09T03:51:23.329Z,9.4
2019-05-09T03:52:37.265Z,9.45
2019-05-09T03:53:48.356Z,9.4
2019-05-09T03:55:00.376Z,9.45
2019-05-09T03:56:12.873Z,9.4
2019-05-09T03:57:23.571Z,9.37
2019-05-09T03:58:36.064Z,9.41
2019-05-09T03:59:48.088Z,9.45
2019-05-09T04:01:00.407Z,9.47
2019-05-09T04:02:14.931Z,9.4
2019-05-09T04:03:27.482Z,9.42
2019-05-09T04:04:38.337Z,9.47
2019-05-09T04:06:07.985Z,9.4
2019-05-09T04:07:18.724Z,9.4
2019-05-09T04:08:30.718Z,9.45
2019-05-09T04:09:44.724Z,9.35
2019-05-09T04:10:58.337Z,9.29
2019-05-09T04:12:10.001Z,9.41
2019-05-09T04:13:22.827Z,9.37
2019-05-09T04:14:33.768Z,9.37
2019-05-09T04:15:47.546Z,9.41
2019-05-09T04:17:00.004Z,9.37
2019-05-09T04:18:10.445Z,9.35
2019-05-09T04:19:23.032Z,9.4
2019-05-09T04:20:37.507Z,9.41
2019-05-09T04:21:48.378Z,9.37
2019-05-09T04:23:01.875Z,9.41
2019-05-09T04:24:13.581Z,9.42
2019-05-09T04:25:27.321Z,9.44
2019-05-09T04:26:38.131Z,9.33
2019-05-09T04:27:50.437Z,9.42
2019-05-09T04:29:02.614Z,9.38
2019-05-09T04:30:14.381Z,9.35
2019-05-09T04:31:27.941Z,9.29
2019-05-09T04:32:40.164Z,9.33
2019-05-09T04:33:52.178Z,9.27
2019-05-09T04:35:02.904Z,9.27
2019-05-09T04:36:13.522Z,9.3
2019-05-09T04:37:28.077Z,9.27
2019-05-09T04:38:42.323Z,9.27
2019-05-09T04:39:59.334Z,9.29
2019-05-09T04:41:25.404Z,9.3
2019-05-09T04:42:47.380Z,9.29
2019-05-09T04:43:59.868Z,9.3
2019-05-09T04:45:22.671Z,9.34
2019-05-09T04:46:33.095Z,9.35
2019-05-09T04:47:49.637Z,9.37
2019-05-09T04:49:08.065Z,9.44
2019-05-09T04:50:27.893Z,9.4
2019-05-09T04:51:41.574Z,9.44
2019-05-09T04:52:52.879Z,9.44
2019-05-09T04:54:03.460Z,9.42
2019-05-09T04:55:15.183Z,9.42
2019-05-09T04:56:27.806Z,9.44
2019-05-09T04:57:38.319Z,9.42
2019-05-09T04:58:50.549Z,9.41
2019-05-09T05:00:02.463Z,9.42
2019-05-09T05:01:19.363Z,9.53
2019-05-09T05:02:30.131Z,9.56
2019-05-09T05:03:42.368Z,9.55
2019-05-09T05:04:53.398Z,9.53
2019-05-09T05:06:04.064Z,9.48
2019-05-09T05:07:17.794Z,9.55
2019-05-09T05:08:28.538Z,9.52
2019-05-09T05:09:40.460Z,9.55
2019-05-09T05:10:52.628Z,9.62
2019-05-09T05:12:03.658Z,9.55
2019-05-09T05:13:31.898Z,9.59
2019-05-09T05:14:43.747Z,9.53
2019-05-09T05:15:57.271Z,9.7
2019-05-09T05:17:15.014Z,9.63
2019-05-09T05:18:28.254Z,9.63
2019-05-09T05:19:41.014Z,9.6
2019-05-09T05:20:53.135Z,9.63
2019-05-09T05:22:07.235Z,9.65
2019-05-09T05:23:18.231Z,9.62
2019-05-09T05:24:30.219Z,9.71
2019-05-09T05:25:40.732Z,9.67
2019-05-09T05:26:53.447Z,9.71
2019-05-09T05:28:05.710Z,9.74
2019-05-09T05:29:17.688Z,9.7
2019-05-09T05:30:28.445Z,9.81
2019-05-09T05:31:41.208Z,9.67
2019-05-09T05:32:53.792Z,9.74
2019-05-09T05:34:05.347Z,9.63
2019-05-09T05:35:17.844Z,9.62
2019-05-09T05:36:30.318Z,9.62
2019-05-09T05:37:41.236Z,9.63
2019-05-09T05:38:53.193Z,9.6
2019-05-09T05:40:04.003Z,9.59
2019-05-09T05:41:15.595Z,9.65
2019-05-09T05:42:28.169Z,9.62
2019-05-09T05:43:50.374Z,9.63
2019-05-09T05:45:00.858Z,9.59
2019-05-09T05:46:12.942Z,9.5
2019-05-09T05:47:26.405Z,9.58
2019-05-09T05:48:38.304Z,9.55
2019-05-09T05:49:51.199Z,9.63
2019-05-09T05:51:03.144Z,9.67
2019-05-09T05:52:15.828Z,9.7
2019-05-09T05:53:27.721Z,9.66
2019-05-09T05:54:40.217Z,9.67
2019-05-09T05:55:54.613Z,9.77
2019-05-09T05:57:08.118Z,9.71
2019-05-09T05:58:20.496Z,9.75
2019-05-09T05:59:36.843Z,9.75
2019-05-09T06:00:50.582Z,9.75
2019-05-09T06:02:03.089Z,9.77
2019-05-09T06:03:14.118Z,9.8
2019-05-09T06:04:27.510Z,9.77
2019-05-09T06:05:38.368Z,9.8
2019-05-09T06:06:50.642Z,9.84
2019-05-09T06:08:02.613Z,9.85
2019-05-09T06:09:13.621Z,9.84
2019-05-09T06:10:28.890Z,9.85
2019-05-09T06:11:40.906Z,9.85
2019-05-09T06:12:53.755Z,9.92
2019-05-09T06:14:14.486Z,9.99
2019-05-09T06:15:28.526Z,10.05
2019-05-09T06:16:40.248Z,10.18
2019-05-09T06:17:50.971Z,10.13
2019-05-09T06:19:03.730Z,10.19
2019-05-09T06:20:17.691Z,10.19
2019-05-09T06:21:28.344Z,10.26
2019-05-09T06:22:40.668Z,10.21
2019-05-09T06:23:53.215Z,10.17
2019-05-09T06:25:03.898Z,10.11
2019-05-09T06:26:18.875Z,10.15
2019-05-09T06:27:29.985Z,10.21
2019-05-09T06:28:42.482Z,10.18
2019-05-09T06:29:53.562Z,10.15
2019-05-09T06:31:07.516Z,10.18
2019-05-09T06:32:18.777Z,10.11
2019-05-09T06:33:31.067Z,10.1
2019-05-09T06:34:50.206Z,10.11
2019-05-09T06:36:01.461Z,10.08
2019-05-09T06:37:14.218Z,10.07
2019-05-09T06:38:28.191Z,10.1
2019-05-09T06:39:40.301Z,10.17
2019-05-09T06:40:52.519Z,10.19
2019-05-09T06:42:03.558Z,10.22
2019-05-09T06:43:18.271Z,10.21
2019-05-09T06:44:30.710Z,10.3
2019-05-09T06:45:48.455Z,10.32
2019-05-09T06:47:01.090Z,10.37
2019-05-09T06:48:13.748Z,10.34
2019-05-09T06:49:34.470Z,10.4
2019-05-09T06:50:45.454Z,10.43
2019-05-09T06:51:58.026Z,10.47
2019-05-09T06:53:10.519Z,10.51
2019-05-09T06:54:22.378Z,10.57
2019-05-09T06:55:34.719Z,10.54
2019-05-09T06:56:47.529Z,10.52
2019-05-09T06:58:00.683Z,10.43
2019-05-09T06:59:12.567Z,10.42
2019-05-09T07:00:24.715Z,10.42
2019-05-09T07:01:37.541Z,10.45
2019-05-09T07:02:50.279Z,10.39
2019-05-09T07:04:03.714Z,10.3
2019-05-09T07:05:14.776Z,10.37
2019-05-09T07:06:28.045Z,10.34
2019-05-09T07:07:39.878Z,10.24
2019-05-09T07:08:52.492Z,10.37
2019-05-09T07:10:03.925Z,10.39
2019-05-09T07:11:15.486Z,10.3
2019-05-09T07:12:27.438Z,10.3
2019-05-09T07:13:38.230Z,10.32
2019-05-09T07:14:51.025Z,10.36
2019-05-09T07:16:03.309Z,10.37
2019-05-09T07:17:14.341Z,10.39
2019-05-09T07:18:27.653Z,10.37
2019-05-09T07:19:38.233Z,10.47
2019-05-09T07:20:54.156Z,10.54
2019-05-09T07:22:05.527Z,10.55
2019-05-09T07:23:17.715Z,10.57
2019-05-09T07:24:30.979Z,10.69
2019-05-09T07:25:43.165Z,10.7
2019-05-09T07:26:55.614Z,10.76
2019-05-09T07:28:07.610Z,10.83
2019-05-09T07:29:20.261Z,10.95
2019-05-09T07:30:31.545Z,11.1
2019-05-09T07:31:43.045Z,11.2
2019-05-09T07:32:53.716Z,11.21
2019-05-09T07:34:05.593Z,11.33
2019-05-09T07:35:18.545Z,11.45
2019-05-09T07:36:30.265Z,11.49
2019-05-09T07:37:42.799Z,11.59
2019-05-09T07:38:54.256Z,11.72
2019-05-09T07:40:07.799Z,11.77
2019-05-09T07:41:20.264Z,11.91
2019-05-09T07:42:30.946Z,12.01
2019-05-09T07:43:43.352Z,12.19
2019-05-09T07:44:59.049Z,12.22
2019-05-09T07:46:11.424Z,12.23
2019-05-09T07:47:23.153Z,12.23
2019-05-09T07:48:33.628Z,12.09
2019-05-09T07:49:48.120Z,12.19
2019-05-09T07:51:02.147Z,12.24
2019-05-09T07:52:15.333Z,12.32
2019-05-09T07:53:28.269Z,12.39
2019-05-09T07:54:40.170Z,12.37
2019-05-09T07:55:52.278Z,12.39
2019-05-09T07:57:03.672Z,12.38
2019-05-09T07:58:21.181Z,12.38
2019-05-09T07:59:33.667Z,12.38
2019-05-09T08:00:44.405Z,12.45
2019-05-09T08:01:58.059Z,12.5
2019-05-09T08:03:14.429Z,12.57
2019-05-09T08:04:28.809Z,12.64
2019-05-09T08:05:41.047Z,12.64
2019-05-09T08:06:53.722Z,12.71
2019-05-09T08:08:07.323Z,12.71
2019-05-09T08:09:18.720Z,12.8
2019-05-09T08:10:34.448Z,12.78
2019-05-09T08:11:48.279Z,12.81
2019-05-09T08:13:00.904Z,12.77
2019-05-09T08:14:17.560Z,12.82
2019-05-09T08:15:30.387Z,12.89
2019-05-09T08:16:42.776Z,12.81
2019-05-09T08:17:55.230Z,12.81
2019-05-09T08:19:07.608Z,12.78
2019-05-09T08:20:20.031Z,12.82
2019-05-09T08:21:32.482Z,12.81
2019-05-09T08:23:02.031Z,12.72
2019-05-09T08:24:13.867Z,12.72
2019-05-09T08:25:27.647Z,12.62
2019-05-09T08:26:39.461Z,12.7
2019-05-09T08:27:50.733Z,12.78
2019-05-09T08:29:03.252Z,12.77
2019-05-09T08:30:17.703Z,12.82
2019-05-09T08:31:30.421Z,12.85
2019-05-09T08:32:42.703Z,12.96
2019-05-09T08:33:53.728Z,13.08
2019-05-09T08:35:08.195Z,13.18
2019-05-09T08:36:22.291Z,13.56
2019-05-09T08:37:33.621Z,14.29
2019-05-09T08:38:47.713Z,15.03
2019-05-09T08:40:00.266Z,15.96
2019-05-09T08:41:11.688Z,16.5
2019-05-09T08:42:25.075Z,16.93
2019-05-09T08:43:37.679Z,17.45
2019-05-09T08:44:48.298Z,17.75
2019-05-09T08:46:00.074Z,18
2019-05-09T08:47:12.594Z,18.12
2019-05-09T08:48:23.898Z,18.04
2019-05-09T08:49:37.399Z,17.6
2019-05-09T08:50:50.449Z,17.2
2019-05-09T08:52:20.060Z,17.31
2019-05-09T08:53:32.348Z,17.19
2019-05-09T08:54:43.505Z,17.19
2019-05-09T08:55:57.971Z,17.01
2019-05-09T08:57:10.173Z,17.04
2019-05-09T08:58:22.267Z,16.96
2019-05-09T08:59:33.197Z,17.11
2019-05-09T09:00:44.214Z,16.82
2019-05-09T09:02:23.403Z,16.49
2019-05-09T09:03:37.694Z,16.29
2019-05-09T09:04:48.783Z,15.99
2019-05-09T09:06:00.294Z,15.69
2019-05-09T09:07:13.201Z,15.54
2019-05-09T09:08:24.405Z,15.35
2019-05-09T09:09:37.838Z,15.27
2019-05-09T09:10:48.754Z,15.23
2019-05-09T09:12:00.862Z,15.09
2019-05-09T09:13:30.779Z,15
2019-05-09T09:14:43.508Z,14.99
2019-05-09T09:16:23.826Z,14.77
2019-05-09T09:17:38.218Z,14.81
2019-05-09T09:18:50.608Z,14.7
2019-05-09T09:20:03.684Z,14.62
2019-05-09T09:21:18.030Z,14.58
2019-05-09T09:22:30.823Z,14.56
2019-05-09T09:23:53.325Z,14.51
2019-05-09T09:25:07.611Z,14.65
2019-05-09T09:26:18.406Z,14.72
2019-05-09T09:27:29.797Z,15.03
2019-05-09T09:28:40.561Z,15.5
2019-05-09T09:29:52.895Z,15.68
2019-05-09T09:31:08.092Z,15.78
2019-05-09T09:32:21.271Z,15.94
2019-05-09T09:33:33.548Z,16.51
2019-05-09T09:34:48.157Z,17.14
2019-05-09T09:36:00.471Z,17.76
2019-05-09T09:37:14.990Z,18.41
2019-05-09T09:38:28.093Z,19.09
2019-05-09T09:39:48.737Z,19.63
2019-05-09T09:41:00.601Z,20.39
2019-05-09T09:42:14.370Z,20.85
2019-05-09T09:43:30.363Z,21.22
2019-05-09T09:47:31.059Z,21.66
2019-05-09T09:48:47.981Z,21.56
2019-05-09T09:50:02.503Z,21.34
2019-05-09T09:51:14.214Z,21.09
2019-05-09T09:52:29.177Z,20.97
2019-05-09T09:53:43.968Z,20.94
2019-05-09T09:54:58.182Z,20.98
2019-05-09T09:56:11.037Z,20.94
2019-05-09T09:57:25.283Z,21.09
2019-05-09T09:58:37.909Z,21.25
2019-05-09T09:59:51.039Z,21.66
2019-05-09T10:01:08.643Z,22.03
2019-05-09T10:02:19.030Z,22.06
2019-05-09T10:03:29.198Z,22.13
2019-05-09T10:04:40.065Z,22.11
2019-05-09T10:05:51.077Z,22.03
2019-05-09T10:07:03.399Z,21.76
2019-05-09T10:08:20.709Z,21.5
2019-05-09T10:09:30.853Z,21.61
2019-05-09T10:10:40.728Z,21.57
2019-05-09T10:11:56.758Z,21.35
2019-05-09T10:13:12.793Z,21.19
2019-05-09T10:14:24.010Z,21.03
2019-05-09T10:15:38.201Z,21
2019-05-09T10:16:50.301Z,20.96
2019-05-09T10:18:00.760Z,21.01
2019-05-09T10:19:13.282Z,21.09
2019-05-09T10:20:24.016Z,21.31
2019-05-09T10:21:38.180Z,21.65
2019-05-09T10:23:11.657Z,21.56
2019-05-09T10:24:30.590Z,21.71
2019-05-09T10:25:43.047Z,21.94
2019-05-09T10:26:53.182Z,22.21
2019-05-09T10:28:03.347Z,22.42
2019-05-09T10:29:14.958Z,22.87
2019-05-09T10:30:28.515Z,23.32
2019-05-09T10:32:58.323Z,23.77
2019-05-09T10:34:13.452Z,23.94
2019-05-09T10:35:27.906Z,24.09
2019-05-09T10:36:38.523Z,24.25
2019-05-09T10:37:51.699Z,24.15
2019-05-09T10:39:05.323Z,23.9
2019-05-09T10:40:16.172Z,23.77
2019-05-09T10:41:26.331Z,23.65
2019-05-09T10:42:37.878Z,23.57
2019-05-09T10:43:50.902Z,23.4
2019-05-09T10:45:03.332Z,23.4
2019-05-09T10:46:19.367Z,23.57
2019-05-09T10:47:32.136Z,23.57
